Time;durP1;ratioP1;P1;durP2;ratioP2;P2;SDS_P1;SDS_P2;PMS_P1;PMS_P2;Temp;Humidity;BMP_temperature;BMP_pressure;BME280_temperature;BME280_humidity;BME280_pressure;Samples;Min_cycle;Max_cycle;Signal;HPM_P1;HPM_P2
2022/05/11 00:00:57;;;;;;;9.33;6.23;;;;;;;19.49;55.41;101104.56;4988479;28;96882;-87
2022/05/11 00:03:23;;;;;;;7.13;6.53;;;;;;;19.47;55.53;101111.97;4999728;28;100244;-86
2022/05/11 00:05:49;;;;;;;6.07;5.47;;;;;;;19.46;55.43;101116.81;4991710;28;96635;-88
2022/05/11 00:08:14;;;;;;;6.57;5.93;;;;;;;19.41;55.56;101112.88;5004960;28;97241;-85
2022/05/11 00:10:40;;;;;;;7.73;7.03;;;;;;;19.40;55.61;101111.34;4998782;28;97217;-86
2022/05/11 00:13:05;;;;;;;8.93;6.80;;;;;;;19.41;55.64;101106.53;4990000;28;99742;-86
2022/05/11 00:15:32;;;;;;;6.50;5.90;;;;;;;19.39;55.54;101098.72;5001909;28;97598;-87
2022/05/11 00:17:58;;;;;;;6.53;5.90;;;;;;;19.34;55.68;101087.63;4999756;28;98618;-87
2022/05/11 00:20:23;;;;;;;7.67;6.10;;;;;;;19.31;55.63;101091.50;5007214;28;96914;-87
2022/05/11 00:22:57;;;;;;;6.77;6.17;;;;;;;19.26;56.14;101092.41;4988995;28;97007;-86
2022/05/11 00:25:25;;;;;;;7.20;6.50;;;;;;;19.23;55.76;101074.69;4990281;28;98414;-89
2022/05/11 00:27:52;;;;;;;7.93;5.87;;;;;;;19.23;55.77;101079.53;4999318;28;96848;-86
2022/05/11 00:30:17;;;;;;;8.53;6.20;;;;;;;19.22;56.08;101075.25;4991754;28;97132;-86
2022/05/11 00:32:43;;;;;;;9.80;6.60;;;;;;;19.21;55.98;101071.72;4990372;28;98492;-86
2022/05/11 00:35:08;;;;;;;7.60;6.10;;;;;;;19.20;56.02;101073.00;4999876;28;96875;-86
2022/05/11 00:37:34;;;;;;;7.57;6.80;;;;;;;19.17;56.22;101068.50;4980648;28;97302;-86
2022/05/11 00:40:00;;;;;;;6.93;6.33;;;;;;;19.16;56.09;101078.16;4996232;28;96888;-86
2022/05/11 00:42:25;;;;;;;7.23;6.57;;;;;;;19.15;56.14;101059.19;5005897;28;97066;-86
2022/05/11 00:44:54;;;;;;;6.77;6.17;;;;;;;19.14;56.31;101058.44;4997365;28;97398;-87
2022/05/11 00:47:33;;;;;;;6.37;5.87;;;;;;;19.14;57.24;101061.22;4990141;28;96980;-86
2022/05/11 00:50:05;;;;;;;6.70;5.83;;;;;;;19.17;56.65;101056.59;4997681;28;96945;-88
2022/05/11 00:52:34;;;;;;;6.80;6.20;;;;;;;19.16;56.27;101055.84;5000903;28;102177;-86
2022/05/11 00:55:23;;;;;;;7.00;6.40;;;;;;;19.11;57.27;101045.56;5005674;28;100335;-86
2022/05/11 00:58:00;;;;;;;6.33;5.77;;;;;;;19.11;56.74;101034.41;4989313;28;96869;-86
2022/05/11 01:00:27;;;;;;;6.80;6.20;;;;;;;19.04;56.32;101028.75;5003827;28;97049;-86
2022/05/11 01:03:04;;;;;;;6.20;5.70;;;;;;;18.99;57.33;101038.00;5006770;28;98375;-85
2022/05/11 01:05:30;;;;;;;8.00;6.50;;;;;;;18.95;56.60;101046.69;5010100;28;96828;-86
2022/05/11 01:07:57;;;;;;;7.73;6.53;;;;;;;18.94;56.61;101042.41;4992562;28;96936;-86
2022/05/11 01:10:25;;;;;;;6.50;5.90;;;;;;;18.97;56.56;101046.16;5001542;28;96621;-88
2022/05/11 01:12:54;;;;;;;6.40;5.80;;;;;;;18.95;56.53;101041.13;4986558;28;98766;-86
2022/05/11 01:15:21;;;;;;;7.13;6.47;;;;;;;18.99;56.45;101030.38;5010340;28;101848;-86
2022/05/11 01:17:47;;;;;;;7.70;6.60;;;;;;;19.01;56.60;101036.16;5008368;28;96811;-86
2022/05/11 01:20:23;;;;;;;7.70;7.00;;;;;;;19.01;57.49;101010.31;4992691;28;97072;-86
2022/05/11 01:23:07;;;;;;;7.40;6.70;;;;;;;19.01;57.94;101022.22;5004800;28;96894;-86
2022/05/11 01:25:33;;;;;;;6.93;6.37;;;;;;;19.01;56.68;101024.25;4981342;28;103564;-86
2022/05/11 01:28:11;;;;;;;8.60;7.40;;;;;;;19.02;57.21;101028.56;4984833;28;97034;-86
2022/05/11 01:30:37;;;;;;;8.17;7.37;;;;;;;18.99;56.66;101030.38;5002580;28;96914;-86
2022/05/11 01:33:06;;;;;;;8.77;7.93;;;;;;;19.00;56.70;101028.34;4996558;28;104185;-86
2022/05/11 01:35:40;;;;;;;8.10;7.30;;;;;;;18.99;57.02;101018.47;4993360;28;98660;-86
2022/05/11 01:38:14;;;;;;;7.93;6.60;;;;;;;18.95;56.81;101018.06;4994034;28;97067;-87
2022/05/11 01:40:39;;;;;;;7.93;7.13;;;;;;;18.89;56.94;101017.44;5006038;28;96929;-86
2022/05/11 01:43:05;;;;;;;7.37;6.50;;;;;;;18.90;56.94;101014.09;5005234;28;97315;-86
2022/05/11 01:45:30;;;;;;;8.10;7.40;;;;;;;18.89;56.85;101004.25;5010370;28;97544;-87
2022/05/11 01:47:56;;;;;;;9.03;7.17;;;;;;;18.86;57.02;101004.56;4991382;28;98389;-86
2022/05/11 01:50:23;;;;;;;6.97;6.27;;;;;;;18.85;57.12;101006.59;4995841;28;96853;-86
2022/05/11 01:52:48;;;;;;;8.47;7.40;;;;;;;18.86;56.92;101013.69;5007021;28;98520;-86
2022/05/11 01:55:14;;;;;;;7.20;6.60;;;;;;;18.85;57.09;101009.41;4992341;28;98580;-86
2022/05/11 01:57:39;;;;;;;7.73;7.00;;;;;;;18.86;57.07;101010.16;4992850;28;96839;-86
2022/05/11 02:00:06;;;;;;;8.47;7.57;;;;;;;18.85;57.16;101014.25;4989316;28;97037;-86
2022/05/11 02:02:32;;;;;;;8.07;7.37;;;;;;;18.82;57.12;101004.91;4990930;28;98007;-86
2022/05/11 02:07:49;;;;;;;7.60;6.90;;;;;;;18.76;57.51;100998.72;5002679;28;96796;-86
2022/05/11 02:10:20;;;;;;;7.10;6.40;;;;;;;18.74;57.44;100990.13;5009383;28;96838;-89
2022/05/11 02:12:46;;;;;;;7.80;7.10;;;;;;;18.69;57.57;100980.63;4992222;28;96755;-86
2022/05/11 02:15:13;;;;;;;9.13;7.67;;;;;;;18.72;57.51;100984.34;4996564;28;97364;-86
2022/05/11 02:17:39;;;;;;;8.10;7.40;;;;;;;18.69;57.53;100977.84;4995485;28;97076;-86
2022/05/11 02:20:05;;;;;;;8.77;7.97;;;;;;;18.71;57.68;100980.06;5005379;28;97000;-86
2022/05/11 02:22:30;;;;;;;7.60;6.80;;;;;;;18.70;57.69;100965.38;5007897;28;98046;-86
2022/05/11 02:24:56;;;;;;;7.67;7.03;;;;;;;18.70;57.59;100970.97;5002599;28;96937;-86
2022/05/11 02:27:21;;;;;;;7.57;6.87;;;;;;;18.69;57.80;100961.13;4999722;28;97136;-86
2022/05/11 02:29:47;;;;;;;7.10;6.50;;;;;;;18.69;57.74;100963.16;5006818;28;97252;-86
2022/05/11 02:32:12;;;;;;;7.93;7.23;;;;;;;18.69;57.86;100965.94;5002180;28;99472;-85
2022/05/11 02:37:22;;;;;;;7.33;6.70;;;;;;;18.65;57.70;100969.03;5004805;28;96952;-86
2022/05/11 02:39:48;;;;;;;9.07;6.13;;;;;;;18.65;57.83;100957.88;4996980;28;96984;-86
2022/05/11 02:42:15;;;;;;;7.13;6.43;;;;;;;18.66;58.03;100955.84;4993328;28;97603;-86
2022/05/11 02:44:40;;;;;;;7.50;6.80;;;;;;;18.65;58.01;100951.59;4992315;28;99722;-86
2022/05/11 02:47:06;;;;;;;11.40;6.93;;;;;;;18.62;58.07;100961.03;4987826;28;97067;-86
2022/05/11 02:49:32;;;;;;;6.93;6.33;;;;;;;18.61;58.13;100957.47;4982298;28;96808;-85
2022/05/11 02:51:58;;;;;;;7.43;6.83;;;;;;;18.63;57.96;100937.44;4992384;28;99785;-85
2022/05/11 02:54:24;;;;;;;6.93;6.27;;;;;;;18.60;58.00;100930.91;4989200;28;97138;-87
2022/05/11 02:56:49;;;;;;;7.53;6.73;;;;;;;18.58;58.18;100935.53;4991038;28;96986;-86
2022/05/11 02:59:14;;;;;;;7.50;6.80;;;;;;;18.62;58.25;100935.94;5002597;28;97518;-85
2022/05/11 03:01:40;;;;;;;8.87;6.90;;;;;;;18.61;58.07;100932.41;5000931;28;97610;-86
2022/05/11 03:04:05;;;;;;;6.23;5.63;;;;;;;18.60;58.14;100936.50;4992862;28;96901;-86
2022/05/11 03:06:31;;;;;;;7.57;6.87;;;;;;;18.58;58.18;100930.72;4993501;28;97132;-85
2022/05/11 03:08:56;;;;;;;6.70;6.10;;;;;;;18.57;58.33;100931.22;5005831;28;98839;-85
2022/05/11 03:11:21;;;;;;;7.00;6.30;;;;;;;18.52;58.17;100921.72;4992074;28;99752;-86
2022/05/11 03:13:47;;;;;;;7.07;6.37;;;;;;;18.56;58.19;100935.31;4991154;28;97717;-85
2022/05/11 03:16:12;;;;;;;7.13;6.47;;;;;;;18.55;58.08;100931.03;5005640;28;96695;-85
2022/05/11 03:18:38;;;;;;;6.87;6.27;;;;;;;18.56;58.19;100924.19;4990198;28;97178;-88
2022/05/11 03:21:03;;;;;;;6.57;5.83;;;;;;;18.56;58.21;100926.97;4988262;28;98324;-85
2022/05/11 03:23:29;;;;;;;7.10;6.30;;;;;;;18.54;58.31;100916.34;4990370;28;97200;-85
2022/05/11 03:25:55;;;;;;;6.67;6.10;;;;;;;18.54;58.24;100930.28;5000384;28;96948;-85
2022/05/11 03:28:21;;;;;;;5.80;5.33;;;;;;;18.54;58.33;100923.97;4989032;28;97174;-85
2022/05/11 03:30:46;;;;;;;6.70;6.07;;;;;;;18.52;58.25;100918.19;4977024;28;98370;-85
2022/05/11 03:35:56;;;;;;;5.87;5.40;;;;;;;18.51;58.28;100916.69;5005153;28;96867;-86
2022/05/11 03:38:21;;;;;;;5.90;5.40;;;;;;;18.50;58.28;100921.50;4992676;28;96980;-85
2022/05/11 03:40:47;;;;;;;6.77;6.13;;;;;;;18.50;58.29;100907.56;4981703;28;99258;-85
2022/05/11 03:43:12;;;;;;;7.00;6.30;;;;;;;18.48;58.37;100909.41;4990742;28;99565;-85
2022/05/11 03:45:37;;;;;;;5.50;5.10;;;;;;;18.43;58.39;100902.66;5006802;28;96799;-86
2022/05/11 03:48:03;;;;;;;6.20;5.27;;;;;;;18.45;58.36;100900.09;4982982;28;97299;-86
2022/05/11 03:50:29;;;;;;;6.33;5.77;;;;;;;18.45;58.44;100921.63;5001089;28;97065;-85
2022/05/11 03:52:56;;;;;;;5.77;5.37;;;;;;;18.45;58.51;100902.13;4986360;28;97099;-86
2022/05/11 03:55:23;;;;;;;5.60;5.13;;;;;;;18.44;58.46;100892.25;4984957;28;97243;-86
2022/05/11 03:57:49;;;;;;;7.10;5.43;;;;;;;18.42;58.48;100905.97;4987029;28;96993;-86
2022/05/11 04:00:21;;;;;;;7.03;5.73;;;;;;;18.41;58.43;100905.22;4972437;28;98138;-84
2022/05/11 04:02:48;;;;;;;8.27;4.80;;;;;;;18.36;58.42;100894.22;4999958;28;102326;-84
2022/05/11 04:05:14;;;;;;;5.23;4.53;;;;;;;18.38;58.44;100906.31;4977451;28;97196;-84
2022/05/11 04:07:41;;;;;;;4.83;4.43;;;;;;;18.37;58.59;100904.06;4981407;28;96988;-84
2022/05/11 04:10:08;;;;;;;5.13;4.63;;;;;;;18.32;58.53;100888.22;5001141;28;97961;-83
2022/05/11 04:12:34;;;;;;;10.73;4.67;;;;;;;18.38;58.48;100913.91;4990362;28;99482;-84
2022/05/11 04:15:00;;;;;;;5.33;4.83;;;;;;;18.38;58.60;100897.19;5005737;28;97267;-84
2022/05/11 04:17:31;;;;;;;4.30;4.00;;;;;;;18.39;58.64;100884.78;4971960;28;97412;-83
2022/05/11 04:19:57;;;;;;;4.53;4.23;;;;;;;18.36;58.57;100886.59;5010236;28;97612;-85
2022/05/11 04:22:22;;;;;;;4.30;4.00;;;;;;;18.38;58.51;100894.41;4985522;28;97643;-85
2022/05/11 04:24:47;;;;;;;4.60;4.20;;;;;;;18.37;58.57;100895.72;5007418;28;96956;-85
2022/05/11 04:27:13;;;;;;;4.13;3.83;;;;;;;18.39;58.56;100888.28;5007336;28;97034;-86
2022/05/11 04:29:39;;;;;;;3.83;3.53;;;;;;;18.39;58.52;100896.66;4996781;28;99320;-85
2022/05/11 04:32:05;;;;;;;4.40;4.07;;;;;;;18.39;58.63;100887.56;4987151;28;96869;-85
2022/05/11 04:34:30;;;;;;;3.90;3.60;;;;;;;18.40;58.60;100894.63;4984834;28;96794;-85
2022/05/11 04:36:56;;;;;;;4.40;4.10;;;;;;;18.40;58.52;100905.75;4980123;28;97224;-85
2022/05/11 04:39:22;;;;;;;3.90;3.60;;;;;;;18.39;58.72;100904.28;5011100;28;98200;-85
2022/05/11 04:41:47;;;;;;;3.37;3.17;;;;;;;18.40;58.69;100906.50;4992658;28;97377;-86
2022/05/11 04:44:12;;;;;;;4.63;4.33;;;;;;;18.39;58.75;100918.22;5005268;28;97194;-84
2022/05/11 04:46:38;;;;;;;4.60;4.30;;;;;;;18.31;58.59;100901.41;4996563;28;97066;-85
2022/05/11 04:49:17;;;;;;;4.10;3.80;;;;;;;18.38;58.77;100905.56;4993062;28;99537;-85
2022/05/11 04:51:43;;;;;;;3.90;3.60;;;;;;;18.37;58.74;100901.28;4994648;28;100262;-85
2022/05/11 04:54:09;;;;;;;3.73;3.53;;;;;;;18.36;58.73;100908.88;5008819;28;96765;-85
2022/05/11 04:56:34;;;;;;;3.80;3.53;;;;;;;18.37;58.76;100901.28;4994953;28;97110;-83
2022/05/11 04:59:00;;;;;;;4.13;3.83;;;;;;;18.38;58.86;100905.56;5010665;28;98706;-85
2022/05/11 05:01:29;;;;;;;4.40;3.97;;;;;;;18.36;58.89;100911.69;4992924;28;98405;-83
2022/05/11 05:03:54;;;;;;;4.60;4.30;;;;;;;18.37;58.97;100901.28;5006745;28;96769;-85
2022/05/11 05:06:19;;;;;;;4.30;3.90;;;;;;;18.32;58.89;100897.34;4998709;28;96875;-85
2022/05/11 05:08:45;;;;;;;4.13;3.80;;;;;;;18.38;59.02;100911.13;5009836;28;98092;-85
2022/05/11 05:11:10;;;;;;;4.90;4.47;;;;;;;18.40;58.97;100903.72;5008160;28;98345;-85
2022/05/11 05:13:36;;;;;;;5.43;4.10;;;;;;;18.41;59.07;100907.28;4995916;28;96909;-85
2022/05/11 05:16:01;;;;;;;4.63;4.23;;;;;;;18.45;59.10;100910.50;4989425;28;96716;-85
2022/05/11 05:18:28;;;;;;;4.30;4.00;;;;;;;18.47;59.07;100896.78;4994507;28;98674;-85
2022/05/11 05:20:55;;;;;;;4.47;4.17;;;;;;;18.47;59.11;100916.28;4993699;28;101706;-85
2022/05/11 05:23:21;;;;;;;4.00;3.73;;;;;;;18.49;58.95;100911.66;4994073;28;96861;-85
2022/05/11 05:25:46;;;;;;;3.90;3.60;;;;;;;18.45;59.04;100888.22;5006983;28;97231;-85
2022/05/11 05:31:08;;;;;;;3.77;3.47;;;;;;;18.52;59.19;100887.53;5013747;28;97303;-85
2022/05/11 05:33:34;;;;;;;3.97;3.70;;;;;;;18.58;59.29;100888.91;4993012;28;96888;-85
2022/05/11 05:36:01;;;;;;;3.67;3.37;;;;;;;18.65;59.41;100898.63;5008550;28;97119;-86
2022/05/11 05:38:27;;;;;;;3.90;3.60;;;;;;;18.70;59.30;100904.06;5007928;28;96748;-86
2022/05/11 05:40:54;;;;;;;3.77;3.57;;;;;;;18.78;59.38;100898.56;4991794;28;98290;-85
2022/05/11 05:43:22;;;;;;;5.07;4.33;;;;;;;18.87;59.29;100900.88;5000230;28;97703;-85
2022/05/11 05:45:53;;;;;;;4.10;3.80;;;;;;;18.92;59.68;100900.00;5004658;28;97262;-87
2022/05/11 05:48:20;;;;;;;4.10;3.80;;;;;;;19.01;59.23;100909.91;4996831;28;106498;-85
2022/05/11 05:50:47;;;;;;;4.57;4.17;;;;;;;19.11;59.12;100903.31;4991987;28;98929;-85
2022/05/11 05:53:14;;;;;;;4.17;3.77;;;;;;;19.20;59.39;100902.81;4996435;28;97008;-85
2022/05/11 05:55:41;;;;;;;4.00;3.77;;;;;;;19.28;59.35;100903.66;4990245;28;97399;-85
2022/05/11 05:58:06;;;;;;;3.70;3.40;;;;;;;19.35;59.26;100897.38;4995255;28;99900;-85
2022/05/11 06:00:32;;;;;;;3.77;3.53;;;;;;;19.45;59.26;100897.63;5005000;28;97368;-85
2022/05/11 06:02:58;;;;;;;5.13;3.50;;;;;;;19.58;59.43;100891.19;4987082;28;97693;-84
2022/05/11 06:05:24;;;;;;;3.40;3.20;;;;;;;19.66;59.30;100883.63;5008290;28;96846;-85
2022/05/11 06:07:50;;;;;;;3.97;3.57;;;;;;;19.77;59.33;100883.28;5008030;28;98410;-85
2022/05/11 06:10:15;;;;;;;3.90;3.60;;;;;;;19.85;59.29;100889.69;4992411;28;98741;-84
2022/05/11 06:12:41;;;;;;;3.60;3.30;;;;;;;19.91;59.21;100884.69;4990674;28;97303;-84
2022/05/11 06:15:07;;;;;;;8.33;3.63;;;;;;;19.96;59.00;100889.38;4990233;28;97072;-85
2022/05/11 06:17:33;;;;;;;4.20;3.80;;;;;;;19.98;59.00;100872.81;5005688;28;97049;-84
2022/05/11 06:19:58;;;;;;;4.80;3.27;;;;;;;20.03;59.01;100869.81;4993203;28;98554;-84
2022/05/11 06:22:27;;;;;;;4.17;3.87;;;;;;;20.05;58.87;100909.13;4992440;28;97081;-85
2022/05/11 06:24:53;;;;;;;5.93;3.67;;;;;;;20.08;59.08;100871.72;4985777;28;96850;-84
2022/05/11 06:27:25;;;;;;;3.47;3.20;;;;;;;20.13;59.11;100868.03;5004075;28;98260;-85
2022/05/11 06:29:56;;;;;;;3.90;3.60;;;;;;;20.20;59.00;100869.34;5008813;28;97698;-84
2022/05/11 06:32:22;;;;;;;3.70;3.40;;;;;;;20.23;58.74;100887.81;4983452;28;97036;-85
2022/05/11 06:34:48;;;;;;;4.70;4.20;;;;;;;20.26;58.75;100900.69;4997349;28;96942;-85
2022/05/11 06:37:15;;;;;;;5.97;4.57;;;;;;;20.29;58.79;100871.59;5006945;28;99282;-85
2022/05/11 06:39:41;;;;;;;3.97;3.57;;;;;;;20.31;58.72;100877.41;4982649;28;97429;-85
2022/05/11 06:42:08;;;;;;;4.00;3.67;;;;;;;20.36;58.90;100864.53;4978738;28;97016;-84
2022/05/11 06:44:34;;;;;;;4.00;3.50;;;;;;;20.39;58.60;100872.59;4991218;28;97206;-84
2022/05/11 06:46:59;;;;;;;5.10;4.17;;;;;;;20.43;58.11;100867.38;5007371;28;97294;-84
2022/05/11 06:49:25;;;;;;;4.50;4.10;;;;;;;20.48;58.44;100868.50;4986502;28;97724;-84
2022/05/11 06:51:50;;;;;;;4.30;4.00;;;;;;;20.52;58.16;100864.03;4999697;28;96863;-84
2022/05/11 06:59:43;;;;;;;3.60;3.37;;;;;;;20.72;58.19;100863.13;5002021;28;98038;-84
2022/05/11 07:02:09;;;;;;;4.13;3.73;;;;;;;20.78;57.79;100863.69;4982102;28;96934;-85
2022/05/11 07:04:36;;;;;;;4.87;4.47;;;;;;;20.85;57.69;100876.19;4991926;28;96745;-85
2022/05/11 07:07:02;;;;;;;3.97;3.70;;;;;;;20.95;57.46;100857.53;4987942;28;100082;-84
2022/05/11 07:09:33;;;;;;;7.40;3.90;;;;;;;21.02;57.35;100851.19;5004660;28;99234;-84
2022/05/11 07:12:19;;;;;;;4.00;3.70;;;;;;;21.12;57.33;100832.53;4993086;28;97128;-84
2022/05/11 07:14:53;;;;;;;3.70;3.30;;;;;;;21.21;57.45;100842.44;4991154;28;96939;-85
2022/05/11 07:17:38;;;;;;;4.00;3.70;;;;;;;21.29;57.94;100824.31;4981902;28;99496;-84
2022/05/11 07:20:08;;;;;;;3.50;3.20;;;;;;;21.39;57.28;100825.22;4985699;28;97203;-85
2022/05/11 07:22:34;;;;;;;3.30;3.07;;;;;;;21.47;56.93;100833.63;5000488;28;96990;-84
2022/05/11 07:24:59;;;;;;;3.83;3.53;;;;;;;21.53;56.75;100826.50;5006061;28;96881;-84
2022/05/11 07:27:25;;;;;;;4.30;3.50;;;;;;;21.61;56.36;100818.81;4988911;28;97014;-84
2022/05/11 07:29:52;;;;;;;4.47;4.07;;;;;;;21.70;56.16;100825.88;4990755;28;98404;-84
2022/05/11 07:32:17;;;;;;;4.37;3.80;;;;;;;21.81;56.15;100833.84;4987315;28;97294;-84
2022/05/11 07:34:43;;;;;;;5.17;4.13;;;;;;;21.94;55.47;100816.84;4985092;28;96998;-85
2022/05/11 07:37:08;;;;;;;3.93;3.33;;;;;;;22.02;55.42;100820.34;4997843;28;98645;-83
2022/05/11 07:39:33;;;;;;;3.70;3.40;;;;;;;22.11;54.73;100821.78;4985145;28;99297;-83
2022/05/11 07:41:59;;;;;;;4.83;3.60;;;;;;;22.16;54.51;100827.19;5008705;28;97362;-85
2022/05/11 07:44:25;;;;;;;4.13;3.80;;;;;;;22.25;54.10;100812.56;4989777;28;97014;-83
2022/05/11 07:46:51;;;;;;;3.93;3.60;;;;;;;22.35;54.32;100819.00;5006851;28;97902;-84
2022/05/11 07:49:18;;;;;;;5.40;3.43;;;;;;;22.44;53.46;100802.88;5004023;28;97247;-84
2022/05/11 07:51:45;;;;;;;3.00;2.80;;;;;;;22.49;52.88;100816.69;4998006;28;96822;-84
2022/05/11 07:54:13;;;;;;;2.83;2.63;;;;;;;22.63;52.77;100808.75;5007603;28;96772;-83
2022/05/11 08:02:08;;;;;;;2.73;2.53;;;;;;;22.90;51.67;100815.25;5003324;28;97084;-85
2022/05/11 08:04:34;;;;;;;3.17;2.23;;;;;;;22.95;51.09;100794.63;5002667;28;97226;-83
2022/05/11 08:07:00;;;;;;;1.93;1.83;;;;;;;22.99;50.78;100809.00;5001965;28;96924;-88
2022/05/11 08:09:26;;;;;;;2.00;1.90;;;;;;;23.05;50.22;100801.06;4992038;28;97811;-84
2022/05/11 08:11:52;;;;;;;5.00;1.70;;;;;;;23.10;49.95;100789.63;5003525;28;96644;-83
2022/05/11 08:14:18;;;;;;;1.77;1.67;;;;;;;23.21;49.82;100810.09;4989651;28;96904;-86
2022/05/11 08:16:45;;;;;;;1.53;1.43;;;;;;;23.32;49.51;100799.13;5001001;28;97974;-87
2022/05/11 08:19:12;;;;;;;1.57;1.47;;;;;;;23.35;48.81;100803.59;5007609;28;97106;-84
2022/05/11 08:21:37;;;;;;;2.60;1.77;;;;;;;23.45;48.68;100789.63;4990639;28;96754;-82
2022/05/11 08:24:03;;;;;;;2.00;1.67;;;;;;;23.55;48.16;100810.09;4990659;28;97133;-86
2022/05/11 08:26:29;;;;;;;1.80;1.60;;;;;;;23.64;47.93;100790.53;5006090;28;97173;-84
2022/05/11 08:28:54;;;;;;;2.67;1.50;;;;;;;23.74;47.44;100777.25;4990708;28;96837;-82
2022/05/11 08:34:04;;;;;;;2.13;1.60;;;;;;;23.94;47.18;100778.13;5004585;28;97254;-82
2022/05/11 08:36:30;;;;;;;1.73;1.63;;;;;;;24.08;46.80;100776.47;5004381;28;98440;-86
2022/05/11 08:38:58;;;;;;;2.90;1.80;;;;;;;24.13;46.54;100771.91;4991949;28;96988;-84
2022/05/11 08:41:48;;;;;;;2.63;1.53;;;;;;;24.24;44.21;100771.34;5002441;28;96954;-82
2022/05/11 08:44:17;;;;;;;2.30;1.30;;;;;;;24.37;44.86;100768.91;4998585;28;96910;-88
2022/05/11 08:46:47;;;;;;;2.90;1.30;;;;;;;24.36;45.13;100763.84;4982535;28;99264;-86
2022/05/11 08:49:33;;;;;;;3.90;1.40;;;;;;;24.39;45.18;100760.63;4996135;28;97352;-88
2022/05/11 08:52:02;;;;;;;2.23;1.73;;;;;;;24.40;44.99;100778.97;4982289;28;97040;-85
2022/05/11 08:54:39;;;;;;;1.80;1.63;;;;;;;24.51;43.42;100760.78;5002328;28;96997;-87
2022/05/11 08:57:14;;;;;;;2.03;1.63;;;;;;;24.61;43.25;100758.00;5001067;28;101469;-82
2022/05/11 08:59:39;;;;;;;1.70;1.60;;;;;;;24.70;44.47;100755.22;5004385;28;100431;-85
2022/05/11 09:02:28;;;;;;;3.30;1.80;;;;;;;24.86;42.00;100758.53;4993320;28;97075;-88
2022/05/11 09:04:58;;;;;;;1.17;1.07;;;;;;;25.07;43.89;100748.19;4977145;28;97060;-82
2022/05/11 09:07:25;;;;;;;2.97;1.47;;;;;;;25.26;43.36;100755.88;5004903;28;98132;-87
2022/05/11 09:09:53;;;;;;;2.23;1.40;;;;;;;25.37;43.00;100746.84;5001345;28;96971;-85
2022/05/11 09:12:19;;;;;;;2.80;1.30;;;;;;;25.50;42.92;100734.41;5001150;28;97087;-82
2022/05/11 09:14:49;;;;;;;1.30;1.20;;;;;;;25.68;42.91;100747.72;5006606;28;97094;-82
2022/05/11 09:17:23;;;;;;;1.97;1.30;;;;;;;25.89;41.45;100732.97;4997593;28;96986;-87
2022/05/11 09:20:00;;;;;;;2.50;1.13;;;;;;;26.00;40.80;100732.34;4982346;28;97504;-84
2022/05/11 09:22:26;;;;;;;3.03;1.60;;;;;;;26.03;42.16;100731.16;5001797;28;97212;-83
2022/05/11 09:24:56;;;;;;;1.53;1.43;;;;;;;26.12;41.60;100721.94;4995188;28;97302;-85
2022/05/11 09:27:34;;;;;;;1.70;1.60;;;;;;;26.23;40.96;100738.22;5000330;28;97873;-85
2022/05/11 09:30:14;;;;;;;3.13;1.50;;;;;;;26.33;39.40;100732.53;4996178;28;101369;-89
2022/05/11 09:32:44;;;;;;;2.10;1.50;;;;;;;26.36;41.40;100725.69;5006230;28;97041;-86
2022/05/11 09:35:15;;;;;;;1.73;1.40;;;;;;;26.49;40.40;100725.16;5009053;28;96505;-85
2022/05/11 09:37:42;;;;;;;4.90;1.80;;;;;;;26.54;41.10;100727.63;5007923;28;103194;-86
2022/05/11 09:40:14;;;;;;;2.30;2.10;;;;;;;26.59;40.43;100732.22;5007046;28;97783;-88
2022/05/11 09:42:56;;;;;;;2.30;1.77;;;;;;;26.72;39.90;100725.31;4998733;28;97081;-88
2022/05/11 09:45:41;;;;;;;2.77;2.53;;;;;;;26.75;39.36;100729.78;4999206;28;97395;-84
2022/05/11 09:48:18;;;;;;;2.27;2.07;;;;;;;26.84;39.54;100731.06;4992060;28;99599;-85
2022/05/11 09:50:45;;;;;;;3.00;1.90;;;;;;;26.92;40.53;100732.31;4993197;28;97727;-89
2022/05/11 09:53:26;;;;;;;2.23;2.10;;;;;;;27.00;39.15;100717.97;4983690;28;97346;-85
2022/05/11 09:55:51;;;;;;;2.23;1.80;;;;;;;27.07;40.36;100719.88;4988217;28;96953;-85
2022/05/11 09:58:33;;;;;;;3.37;2.17;;;;;;;27.19;39.13;100721.41;5002832;28;97867;-86
2022/05/11 10:01:25;;;;;;;2.90;2.00;;;;;;;27.31;39.25;100721.44;4987624;28;102121;-84
2022/05/11 10:04:06;;;;;;;3.30;1.73;;;;;;;27.39;38.50;100725.53;4988503;28;97294;-83
2022/05/11 10:06:47;;;;;;;2.03;1.93;;;;;;;27.38;39.36;100715.59;4987063;28;96869;-83
2022/05/11 10:09:15;;;;;;;2.43;2.30;;;;;;;27.37;39.55;100713.38;5009284;28;102720;-85
2022/05/11 10:11:50;;;;;;;2.33;2.10;;;;;;;27.34;38.60;100712.50;4992111;28;98443;-89
2022/05/11 10:22:57;;;;;;;3.63;2.47;;;;;;;27.33;38.89;100713.09;5007501;28;96807;-88
2022/05/11 10:25:36;;;;;;;2.33;2.07;;;;;;;27.42;38.04;100698.16;5010565;28;97068;-84
2022/05/11 10:28:26;;;;;;;6.23;1.80;;;;;;;27.49;37.28;100697.19;4987177;28;96852;-87
2022/05/11 10:31:05;;;;;;;2.43;2.23;;;;;;;27.63;38.33;100692.41;4998410;28;99860;-85
2022/05/11 10:33:42;;;;;;;2.37;2.17;;;;;;;27.76;37.54;100697.47;4998903;28;101459;-85
2022/05/11 10:36:47;;;;;;;2.60;2.40;;;;;;;27.82;36.41;100692.22;4984894;28;97105;-85
2022/05/11 10:39:34;;;;;;;2.23;2.03;;;;;;;27.98;36.84;100679.06;4966546;28;96878;-87
2022/05/11 10:42:36;;;;;;;1.97;1.87;;;;;;;28.12;36.86;100682.03;5005170;28;98217;-87
2022/05/11 10:45:31;;;;;;;2.10;2.00;;;;;;;28.28;36.05;100685.09;5005303;28;102716;-86
2022/05/11 10:48:03;;;;;;;2.37;2.17;;;;;;;28.49;36.72;100679.28;4992730;28;97216;-86
2022/05/11 10:50:47;;;;;;;3.83;2.60;;;;;;;28.60;36.39;100667.97;4989952;28;97076;-86
2022/05/11 10:53:23;;;;;;;2.17;1.97;;;;;;;28.52;37.36;100678.03;5004016;28;97840;-85
2022/05/11 10:55:56;;;;;;;2.10;2.00;;;;;;;28.41;36.18;100665.41;5008152;28;100390;-88
2022/05/11 10:58:43;;;;;;;2.13;2.03;;;;;;;28.41;36.89;100659.72;5007125;28;96735;-85
2022/05/11 11:01:10;;;;;;;1.97;1.77;;;;;;;28.60;36.81;100658.72;5010943;28;96653;-85
2022/05/11 11:03:47;;;;;;;2.27;2.07;;;;;;;28.75;35.36;100661.00;5011156;28;96872;-87
2022/05/11 11:09:14;;;;;;;2.17;1.83;;;;;;;28.87;36.32;100662.47;5007871;28;96565;-90
2022/05/11 11:11:55;;;;;;;4.37;2.47;;;;;;;28.85;34.75;100670.09;5009786;28;96654;-88
2022/05/11 11:14:32;;;;;;;1.73;1.60;;;;;;;28.82;33.39;100652.25;5005004;28;98055;-85
2022/05/11 11:17:00;;;;;;;2.27;1.80;;;;;;;28.66;35.44;100659.06;4989591;28;99285;-86
2022/05/11 11:19:26;;;;;;;1.50;1.40;;;;;;;28.61;35.65;100652.47;4986721;28;97085;-84
2022/05/11 11:21:53;;;;;;;2.40;1.70;;;;;;;28.78;35.03;100654.13;4989294;28;96796;-86
2022/05/11 11:24:24;;;;;;;3.20;1.57;;;;;;;28.89;33.77;100650.50;4989246;28;97608;-88
2022/05/11 11:26:57;;;;;;;1.73;1.20;;;;;;;29.06;33.73;100646.47;4992036;28;99461;-86
2022/05/11 11:29:35;;;;;;;1.40;1.30;;;;;;;29.33;33.59;100647.34;4986671;28;97216;-87
2022/05/11 11:32:02;;;;;;;2.00;1.73;;;;;;;29.58;33.71;100644.47;4998382;28;96673;-87
2022/05/11 11:34:37;;;;;;;2.17;1.30;;;;;;;29.78;31.65;100652.59;4990845;28;97274;-84
2022/05/11 11:37:28;;;;;;;1.63;1.00;;;;;;;30.00;31.88;100639.59;4984468;28;97719;-86
2022/05/11 11:39:57;;;;;;;1.30;1.10;;;;;;;30.06;33.24;100643.47;4999645;28;96759;-84
2022/05/11 11:42:38;;;;;;;2.50;1.37;;;;;;;30.19;31.10;100631.38;5008464;28;96960;-85
2022/05/11 11:45:09;;;;;;;1.90;1.70;;;;;;;30.28;32.77;100649.56;5009576;28;101637;-84
2022/05/11 11:47:36;;;;;;;1.77;1.10;;;;;;;30.32;32.00;100641.25;4982088;28;103615;-88
2022/05/11 11:50:07;;;;;;;3.40;1.93;;;;;;;30.36;32.62;100650.00;5003826;28;96845;-86
2022/05/11 11:52:39;;;;;;;2.30;1.50;;;;;;;30.28;30.12;100629.69;4998069;28;97048;-88
2022/05/11 11:55:23;;;;;;;1.60;1.50;;;;;;;30.31;31.10;100629.19;5002644;28;97957;-86
2022/05/11 11:57:57;;;;;;;1.23;1.13;;;;;;;30.55;31.54;100655.22;5005738;28;102417;-85
2022/05/11 12:00:47;;;;;;;1.77;1.30;;;;;;;30.68;31.19;100648.03;4990617;28;96773;-83
2022/05/11 12:03:18;;;;;;;3.57;1.43;;;;;;;30.68;31.10;100640.25;4993907;28;96988;-85
2022/05/11 12:05:47;;;;;;;1.90;1.80;;;;;;;30.74;31.44;100636.97;4996696;28;99665;-85
2022/05/11 12:17:01;;;;;;;1.40;1.13;;;;;;;30.82;32.11;100635.25;5009727;28;100545;-85
2022/05/11 12:19:32;;;;;;;2.63;1.30;;;;;;;30.94;30.67;100632.31;4989553;28;97042;-86